KMUI/MUI METAR and TAF weather

Enter ICAO airport designator
Station Type Date Time Source
KMUI METAR 2021/07/30 00:55 UTC NOAA

KMUI 300055Z 00000KT 7SM BKN045 24/22 A2979 RMK AO2A SLP088 T02350217 $


Station Type Date Time Source
KMUI Decoded METAR 2021/07/30 00:55 UTC NOAA

Muir Army Air Field / Indiantown, PA, United States (KMUI) 40-26N 076-34W
Jul 29, 2021 - 08:55 PM EDT / 2021.07.30 0055 UTC
Wind: Calm:0
Visibility: 7 mile(s):0
Sky conditions: mostly cloudy
Temperature: 74.3 F (23.5 C)
Dew Point: 71.1 F (21.7 C)
Relative Humidity: 89%
Pressure (altimeter): 29.79 in. Hg (1008 hPa)
ob: KMUI 300055Z 00000KT 7SM BKN045 24/22 A2979 RMK AO2A SLP088 T02350217
cycle: 1

Station Type Date Time Source
KMUI TAF 2021/07/29 19:15 UTC NOAA

TAF KMUI 291900Z 2919/3101 VRB06KT 9000 -SHRA BKN015 OVC020 QNH2985INS
TEMPO 2919/2924 26020G35KT 6000 -TSRAGR OVC025CB
BECMG 3007/3008 28006KT 8000 BR OVC020 QNH2969INS
BECMG 3013/3014 32015G20KT 9999 NSW SCT025 QNH2983INS
BECMG 3021/3022 33006KT 9999 FEW060 QNH2991INS TX27/3018Z TN20/3011Z LAST NO
AMDS AFT 3005 NEXT 3011

Example: see airport list